sensor_id;sensor_type;location;lat;lon;timestamp;P1;durP1;ratioP1;P2;durP2;ratioP2
18772;SDS011;9515;50.810;4.418;2022-07-30T00:01:27;17.92;;;8.00;;
18772;SDS011;9515;50.810;4.418;2022-07-30T00:03:53;12.30;;;7.00;;
18772;SDS011;9515;50.810;4.418;2022-07-30T00:06:18;19.30;;;7.75;;
18772;SDS011;9515;50.810;4.418;2022-07-30T00:08:44;13.20;;;7.60;;
18772;SDS011;9515;50.810;4.418;2022-07-30T00:11:10;13.82;;;7.25;;
18772;SDS011;9515;50.810;4.418;2022-07-30T00:13:36;14.23;;;7.80;;
18772;SDS011;9515;50.810;4.418;2022-07-30T00:16:02;13.63;;;7.35;;
18772;SDS011;9515;50.810;4.418;2022-07-30T00:18:27;16.80;;;7.60;;
18772;SDS011;9515;50.810;4.418;2022-07-30T00:20:53;14.73;;;7.63;;
18772;SDS011;9515;50.810;4.418;2022-07-30T00:23:19;14.52;;;8.63;;
18772;SDS011;9515;50.810;4.418;2022-07-30T00:25:44;14.75;;;8.23;;
18772;SDS011;9515;50.810;4.418;2022-07-30T00:28:10;22.98;;;8.00;;
18772;SDS011;9515;50.810;4.418;2022-07-30T00:30:36;13.95;;;7.65;;
18772;SDS011;9515;50.810;4.418;2022-07-30T00:33:02;13.48;;;7.53;;
18772;SDS011;9515;50.810;4.418;2022-07-30T00:35:28;12.70;;;7.47;;
18772;SDS011;9515;50.810;4.418;2022-07-30T00:37:54;12.85;;;7.50;;
18772;SDS011;9515;50.810;4.418;2022-07-30T00:40:19;20.27;;;7.85;;
18772;SDS011;9515;50.810;4.418;2022-07-30T00:42:46;15.82;;;8.02;;
18772;SDS011;9515;50.810;4.418;2022-07-30T00:45:13;15.38;;;8.02;;
18772;SDS011;9515;50.810;4.418;2022-07-30T00:47:39;16.33;;;8.48;;
18772;SDS011;9515;50.810;4.418;2022-07-30T00:50:06;16.52;;;8.52;;
18772;SDS011;9515;50.810;4.418;2022-07-30T00:52:34;17.08;;;9.10;;
18772;SDS011;9515;50.810;4.418;2022-07-30T00:55:02;15.82;;;8.25;;
18772;SDS011;9515;50.810;4.418;2022-07-30T00:57:29;11.30;;;8.60;;
18772;SDS011;9515;50.810;4.418;2022-07-30T00:59:55;15.45;;;9.13;;
18772;SDS011;9515;50.810;4.418;2022-07-30T01:02:21;18.30;;;7.95;;
18772;SDS011;9515;50.810;4.418;2022-07-30T01:04:47;18.70;;;8.18;;
18772;SDS011;9515;50.810;4.418;2022-07-30T01:07:13;17.73;;;8.05;;
18772;SDS011;9515;50.810;4.418;2022-07-30T01:09:39;9.05;;;6.97;;
18772;SDS011;9515;50.810;4.418;2022-07-30T01:12:05;12.13;;;6.75;;
18772;SDS011;9515;50.810;4.418;2022-07-30T01:14:35;16.23;;;6.80;;
18772;SDS011;9515;50.810;4.418;2022-07-30T01:17:02;14.07;;;7.43;;
18772;SDS011;9515;50.810;4.418;2022-07-30T01:19:29;15.00;;;6.88;;
18772;SDS011;9515;50.810;4.418;2022-07-30T01:22:20;11.18;;;7.68;;
18772;SDS011;9515;50.810;4.418;2022-07-30T01:27:57;14.20;;;8.00;;
18772;SDS011;9515;50.810;4.418;2022-07-30T01:30:24;11.93;;;7.82;;
18772;SDS011;9515;50.810;4.418;2022-07-30T01:32:52;14.75;;;8.07;;
18772;SDS011;9515;50.810;4.418;2022-07-30T01:35:20;15.00;;;8.80;;
18772;SDS011;9515;50.810;4.418;2022-07-30T01:37:48;17.52;;;8.48;;
18772;SDS011;9515;50.810;4.418;2022-07-30T01:40:17;19.27;;;9.75;;
18772;SDS011;9515;50.810;4.418;2022-07-30T01:42:45;15.02;;;8.73;;
18772;SDS011;9515;50.810;4.418;2022-07-30T01:45:13;13.90;;;8.45;;
18772;SDS011;9515;50.810;4.418;2022-07-30T01:47:41;14.13;;;8.82;;
18772;SDS011;9515;50.810;4.418;2022-07-30T01:50:10;12.30;;;8.30;;
18772;SDS011;9515;50.810;4.418;2022-07-30T01:52:38;14.85;;;7.68;;
18772;SDS011;9515;50.810;4.418;2022-07-30T01:55:07;16.60;;;7.93;;
18772;SDS011;9515;50.810;4.418;2022-07-30T01:57:36;12.75;;;7.57;;
18772;SDS011;9515;50.810;4.418;2022-07-30T02:00:04;15.63;;;7.95;;
18772;SDS011;9515;50.810;4.418;2022-07-30T02:02:33;13.07;;;8.00;;
18772;SDS011;9515;50.810;4.418;2022-07-30T02:04:59;16.70;;;8.50;;
18772;SDS011;9515;50.810;4.418;2022-07-30T02:07:39;14.23;;;7.72;;
18772;SDS011;9515;50.810;4.418;2022-07-30T02:10:23;16.35;;;8.07;;
18772;SDS011;9515;50.810;4.418;2022-07-30T02:12:55;14.18;;;8.05;;
18772;SDS011;9515;50.810;4.418;2022-07-30T02:15:32;11.05;;;7.82;;
18772;SDS011;9515;50.810;4.418;2022-07-30T02:20:46;15.85;;;8.82;;
18772;SDS011;9515;50.810;4.418;2022-07-30T02:23:18;17.27;;;9.30;;
18772;SDS011;9515;50.810;4.418;2022-07-30T02:25:46;11.40;;;8.68;;
18772;SDS011;9515;50.810;4.418;2022-07-30T02:28:14;17.55;;;9.82;;
18772;SDS011;9515;50.810;4.418;2022-07-30T02:30:44;14.75;;;9.10;;
18772;SDS011;9515;50.810;4.418;2022-07-30T02:33:14;16.77;;;9.48;;
18772;SDS011;9515;50.810;4.418;2022-07-30T02:35:43;20.83;;;10.45;;
18772;SDS011;9515;50.810;4.418;2022-07-30T02:38:09;18.60;;;10.25;;
18772;SDS011;9515;50.810;4.418;2022-07-30T02:40:40;17.77;;;9.65;;
18772;SDS011;9515;50.810;4.418;2022-07-30T02:43:07;14.40;;;9.85;;
18772;SDS011;9515;50.810;4.418;2022-07-30T02:45:34;13.30;;;10.02;;
18772;SDS011;9515;50.810;4.418;2022-07-30T02:48:02;16.38;;;10.48;;
18772;SDS011;9515;50.810;4.418;2022-07-30T02:50:31;16.75;;;9.82;;
18772;SDS011;9515;50.810;4.418;2022-07-30T02:52:58;16.45;;;10.65;;
18772;SDS011;9515;50.810;4.418;2022-07-30T02:55:26;13.88;;;11.20;;
18772;SDS011;9515;50.810;4.418;2022-07-30T02:57:54;18.63;;;10.43;;
18772;SDS011;9515;50.810;4.418;2022-07-30T03:00:21;19.63;;;11.02;;
18772;SDS011;9515;50.810;4.418;2022-07-30T03:02:51;19.55;;;11.50;;
18772;SDS011;9515;50.810;4.418;2022-07-30T03:05:20;17.33;;;12.05;;
18772;SDS011;9515;50.810;4.418;2022-07-30T03:07:46;14.50;;;11.07;;
18772;SDS011;9515;50.810;4.418;2022-07-30T03:10:13;21.38;;;11.27;;
18772;SDS011;9515;50.810;4.418;2022-07-30T03:12:40;20.13;;;12.30;;
18772;SDS011;9515;50.810;4.418;2022-07-30T03:15:10;20.30;;;11.98;;
18772;SDS011;9515;50.810;4.418;2022-07-30T03:17:41;17.05;;;11.98;;
18772;SDS011;9515;50.810;4.418;2022-07-30T03:20:10;24.55;;;13.00;;
18772;SDS011;9515;50.810;4.418;2022-07-30T03:22:42;17.42;;;12.82;;
18772;SDS011;9515;50.810;4.418;2022-07-30T03:25:12;23.10;;;13.88;;
18772;SDS011;9515;50.810;4.418;2022-07-30T03:27:40;18.83;;;13.63;;
18772;SDS011;9515;50.810;4.418;2022-07-30T03:30:07;18.92;;;12.75;;
18772;SDS011;9515;50.810;4.418;2022-07-30T03:32:34;21.77;;;14.50;;
18772;SDS011;9515;50.810;4.418;2022-07-30T03:35:01;16.73;;;13.85;;
18772;SDS011;9515;50.810;4.418;2022-07-30T03:37:27;20.17;;;13.82;;
18772;SDS011;9515;50.810;4.418;2022-07-30T03:39:53;23.50;;;14.07;;
18772;SDS011;9515;50.810;4.418;2022-07-30T03:42:22;21.63;;;14.75;;
18772;SDS011;9515;50.810;4.418;2022-07-30T03:44:49;21.80;;;13.48;;
18772;SDS011;9515;50.810;4.418;2022-07-30T03:47:15;26.67;;;14.20;;
18772;SDS011;9515;50.810;4.418;2022-07-30T03:49:43;21.15;;;14.10;;
18772;SDS011;9515;50.810;4.418;2022-07-30T03:52:09;19.85;;;13.32;;
18772;SDS011;9515;50.810;4.418;2022-07-30T03:54:35;21.67;;;14.68;;
18772;SDS011;9515;50.810;4.418;2022-07-30T03:57:01;17.58;;;13.90;;
18772;SDS011;9515;50.810;4.418;2022-07-30T03:59:29;19.33;;;14.25;;
18772;SDS011;9515;50.810;4.418;2022-07-30T04:01:58;19.80;;;13.68;;
18772;SDS011;9515;50.810;4.418;2022-07-30T04:04:28;19.73;;;14.23;;
18772;SDS011;9515;50.810;4.418;2022-07-30T04:06:54;23.02;;;14.75;;
18772;SDS011;9515;50.810;4.418;2022-07-30T04:09:21;17.20;;;13.13;;
18772;SDS011;9515;50.810;4.418;2022-07-30T04:11:47;24.13;;;14.13;;
18772;SDS011;9515;50.810;4.418;2022-07-30T04:14:12;20.70;;;13.63;;
18772;SDS011;9515;50.810;4.418;2022-07-30T04:19:33;21.58;;;13.90;;
18772;SDS011;9515;50.810;4.418;2022-07-30T04:22:02;19.10;;;12.70;;
18772;SDS011;9515;50.810;4.418;2022-07-30T04:24:30;20.02;;;11.52;;
18772;SDS011;9515;50.810;4.418;2022-07-30T04:26:57;17.88;;;11.23;;
18772;SDS011;9515;50.810;4.418;2022-07-30T04:32:35;13.43;;;9.27;;
18772;SDS011;9515;50.810;4.418;2022-07-30T04:35:01;17.33;;;10.52;;
18772;SDS011;9515;50.810;4.418;2022-07-30T04:37:28;15.75;;;10.35;;
18772;SDS011;9515;50.810;4.418;2022-07-30T04:39:53;12.10;;;9.48;;
18772;SDS011;9515;50.810;4.418;2022-07-30T04:42:21;14.32;;;9.68;;
18772;SDS011;9515;50.810;4.418;2022-07-30T04:44:48;14.38;;;9.85;;
18772;SDS011;9515;50.810;4.418;2022-07-30T04:47:14;16.42;;;9.82;;
18772;SDS011;9515;50.810;4.418;2022-07-30T04:49:41;15.00;;;8.93;;
18772;SDS011;9515;50.810;4.418;2022-07-30T04:52:07;12.13;;;8.88;;
18772;SDS011;9515;50.810;4.418;2022-07-30T04:54:36;11.00;;;7.35;;
18772;SDS011;9515;50.810;4.418;2022-07-30T04:57:10;15.20;;;7.30;;
18772;SDS011;9515;50.810;4.418;2022-07-30T04:59:37;10.38;;;6.85;;
18772;SDS011;9515;50.810;4.418;2022-07-30T05:02:03;11.77;;;6.80;;
18772;SDS011;9515;50.810;4.418;2022-07-30T05:04:31;11.85;;;6.63;;
18772;SDS011;9515;50.810;4.418;2022-07-30T05:06:59;7.53;;;6.38;;
18772;SDS011;9515;50.810;4.418;2022-07-30T05:09:27;8.68;;;6.53;;
18772;SDS011;9515;50.810;4.418;2022-07-30T05:11:54;7.80;;;6.15;;
18772;SDS011;9515;50.810;4.418;2022-07-30T05:14:20;10.88;;;7.07;;
18772;SDS011;9515;50.810;4.418;2022-07-30T05:16:47;9.63;;;5.78;;
18772;SDS011;9515;50.810;4.418;2022-07-30T05:19:14;8.57;;;6.03;;
18772;SDS011;9515;50.810;4.418;2022-07-30T05:21:40;9.10;;;5.97;;
18772;SDS011;9515;50.810;4.418;2022-07-30T05:24:05;9.43;;;6.70;;
18772;SDS011;9515;50.810;4.418;2022-07-30T05:26:31;9.57;;;6.40;;
18772;SDS011;9515;50.810;4.418;2022-07-30T05:28:57;8.75;;;6.93;;
18772;SDS011;9515;50.810;4.418;2022-07-30T05:31:23;9.60;;;6.38;;
18772;SDS011;9515;50.810;4.418;2022-07-30T05:33:49;9.43;;;6.15;;
18772;SDS011;9515;50.810;4.418;2022-07-30T05:36:15;7.72;;;6.38;;
18772;SDS011;9515;50.810;4.418;2022-07-30T05:38:41;9.27;;;6.60;;
18772;SDS011;9515;50.810;4.418;2022-07-30T05:41:06;12.30;;;7.03;;
18772;SDS011;9515;50.810;4.418;2022-07-30T05:43:32;10.55;;;7.60;;
18772;SDS011;9515;50.810;4.418;2022-07-30T05:45:58;12.40;;;7.70;;
18772;SDS011;9515;50.810;4.418;2022-07-30T05:48:23;11.32;;;7.63;;
18772;SDS011;9515;50.810;4.418;2022-07-30T05:50:50;17.67;;;6.95;;
18772;SDS011;9515;50.810;4.418;2022-07-30T05:53:16;11.65;;;6.80;;
18772;SDS011;9515;50.810;4.418;2022-07-30T05:55:41;10.70;;;7.07;;
18772;SDS011;9515;50.810;4.418;2022-07-30T05:58:07;11.23;;;6.53;;
18772;SDS011;9515;50.810;4.418;2022-07-30T06:00:33;13.75;;;6.65;;
18772;SDS011;9515;50.810;4.418;2022-07-30T06:02:59;9.50;;;6.70;;
18772;SDS011;9515;50.810;4.418;2022-07-30T06:05:25;7.50;;;6.20;;
18772;SDS011;9515;50.810;4.418;2022-07-30T06:07:52;8.45;;;5.97;;
18772;SDS011;9515;50.810;4.418;2022-07-30T06:10:19;10.75;;;6.22;;
18772;SDS011;9515;50.810;4.418;2022-07-30T06:12:45;9.27;;;5.55;;
18772;SDS011;9515;50.810;4.418;2022-07-30T06:15:10;9.45;;;5.03;;
18772;SDS011;9515;50.810;4.418;2022-07-30T06:17:40;8.45;;;5.50;;
18772;SDS011;9515;50.810;4.418;2022-07-30T06:20:10;10.10;;;4.82;;
18772;SDS011;9515;50.810;4.418;2022-07-30T06:22:37;10.50;;;4.68;;
18772;SDS011;9515;50.810;4.418;2022-07-30T06:25:02;7.40;;;4.43;;
18772;SDS011;9515;50.810;4.418;2022-07-30T06:27:29;8.52;;;4.47;;
18772;SDS011;9515;50.810;4.418;2022-07-30T06:29:54;7.55;;;4.68;;
18772;SDS011;9515;50.810;4.418;2022-07-30T06:32:20;11.00;;;4.50;;
18772;SDS011;9515;50.810;4.418;2022-07-30T06:34:46;10.25;;;4.32;;
18772;SDS011;9515;50.810;4.418;2022-07-30T06:37:11;6.30;;;2.95;;
18772;SDS011;9515;50.810;4.418;2022-07-30T06:39:37;12.57;;;4.20;;
18772;SDS011;9515;50.810;4.418;2022-07-30T06:42:02;7.60;;;3.33;;
18772;SDS011;9515;50.810;4.418;2022-07-30T06:44:28;7.10;;;2.90;;
18772;SDS011;9515;50.810;4.418;2022-07-30T06:46:54;6.38;;;3.42;;
18772;SDS011;9515;50.810;4.418;2022-07-30T06:49:19;7.65;;;3.17;;
18772;SDS011;9515;50.810;4.418;2022-07-30T06:51:45;11.60;;;3.40;;
18772;SDS011;9515;50.810;4.418;2022-07-30T06:54:11;4.00;;;2.60;;
18772;SDS011;9515;50.810;4.418;2022-07-30T06:56:37;11.27;;;3.22;;
18772;SDS011;9515;50.810;4.418;2022-07-30T06:59:02;5.05;;;2.88;;
18772;SDS011;9515;50.810;4.418;2022-07-30T07:01:28;7.60;;;2.42;;
18772;SDS011;9515;50.810;4.418;2022-07-30T07:03:53;5.60;;;2.70;;
18772;SDS011;9515;50.810;4.418;2022-07-30T07:06:19;6.53;;;3.25;;
18772;SDS011;9515;50.810;4.418;2022-07-30T07:08:45;4.68;;;2.78;;
18772;SDS011;9515;50.810;4.418;2022-07-30T07:11:10;5.97;;;2.70;;
18772;SDS011;9515;50.810;4.418;2022-07-30T07:13:36;8.82;;;2.80;;
18772;SDS011;9515;50.810;4.418;2022-07-30T07:16:02;9.20;;;2.88;;
18772;SDS011;9515;50.810;4.418;2022-07-30T07:18:28;6.72;;;2.67;;
18772;SDS011;9515;50.810;4.418;2022-07-30T07:20:54;6.38;;;2.53;;
18772;SDS011;9515;50.810;4.418;2022-07-30T07:23:20;6.50;;;2.20;;
18772;SDS011;9515;50.810;4.418;2022-07-30T07:25:46;4.20;;;2.20;;
18772;SDS011;9515;50.810;4.418;2022-07-30T07:28:17;3.53;;;1.95;;
18772;SDS011;9515;50.810;4.418;2022-07-30T07:30:43;5.40;;;2.30;;
18772;SDS011;9515;50.810;4.418;2022-07-30T07:33:08;3.72;;;2.15;;
18772;SDS011;9515;50.810;4.418;2022-07-30T07:35:34;5.68;;;1.80;;
18772;SDS011;9515;50.810;4.418;2022-07-30T07:38:00;7.07;;;1.60;;
18772;SDS011;9515;50.810;4.418;2022-07-30T07:40:26;4.35;;;1.98;;
18772;SDS011;9515;50.810;4.418;2022-07-30T07:42:52;4.13;;;1.63;;
18772;SDS011;9515;50.810;4.418;2022-07-30T07:45:17;3.28;;;1.60;;
18772;SDS011;9515;50.810;4.418;2022-07-30T07:47:46;6.03;;;1.60;;
18772;SDS011;9515;50.810;4.418;2022-07-30T07:50:13;5.05;;;2.10;;
18772;SDS011;9515;50.810;4.418;2022-07-30T07:52:41;3.90;;;1.70;;
18772;SDS011;9515;50.810;4.418;2022-07-30T07:55:08;4.78;;;1.50;;
18772;SDS011;9515;50.810;4.418;2022-07-30T07:57:41;5.68;;;1.80;;
18772;SDS011;9515;50.810;4.418;2022-07-30T08:00:15;4.55;;;1.83;;
18772;SDS011;9515;50.810;4.418;2022-07-30T08:02:45;4.00;;;1.60;;
18772;SDS011;9515;50.810;4.418;2022-07-30T08:05:13;1.90;;;1.63;;
18772;SDS011;9515;50.810;4.418;2022-07-30T08:07:41;4.60;;;1.60;;
18772;SDS011;9515;50.810;4.418;2022-07-30T08:10:08;4.50;;;1.77;;
18772;SDS011;9515;50.810;4.418;2022-07-30T08:12:35;3.83;;;1.63;;
18772;SDS011;9515;50.810;4.418;2022-07-30T08:15:03;3.13;;;1.50;;
18772;SDS011;9515;50.810;4.418;2022-07-30T08:17:29;3.97;;;1.63;;
18772;SDS011;9515;50.810;4.418;2022-07-30T08:19:58;3.13;;;1.50;;
18772;SDS011;9515;50.810;4.418;2022-07-30T08:22:25;3.17;;;1.80;;
18772;SDS011;9515;50.810;4.418;2022-07-30T08:24:51;4.00;;;1.80;;
18772;SDS011;9515;50.810;4.418;2022-07-30T08:27:16;4.88;;;1.75;;
18772;SDS011;9515;50.810;4.418;2022-07-30T08:29:42;2.85;;;1.60;;
18772;SDS011;9515;50.810;4.418;2022-07-30T08:32:08;4.38;;;1.80;;
18772;SDS011;9515;50.810;4.418;2022-07-30T08:34:33;1.98;;;1.40;;
18772;SDS011;9515;50.810;4.418;2022-07-30T08:36:59;4.78;;;1.92;;
18772;SDS011;9515;50.810;4.418;2022-07-30T08:39:25;5.60;;;1.90;;
18772;SDS011;9515;50.810;4.418;2022-07-30T08:41:51;3.20;;;1.60;;
18772;SDS011;9515;50.810;4.418;2022-07-30T08:44:17;4.10;;;1.67;;
18772;SDS011;9515;50.810;4.418;2022-07-30T08:46:44;2.25;;;1.63;;
18772;SDS011;9515;50.810;4.418;2022-07-30T08:49:11;4.18;;;1.80;;
18772;SDS011;9515;50.810;4.418;2022-07-30T08:51:38;2.90;;;1.60;;
18772;SDS011;9515;50.810;4.418;2022-07-30T08:54:04;2.95;;;1.58;;
18772;SDS011;9515;50.810;4.418;2022-07-30T08:56:31;4.47;;;2.00;;
18772;SDS011;9515;50.810;4.418;2022-07-30T08:59:00;3.55;;;1.30;;
18772;SDS011;9515;50.810;4.418;2022-07-30T09:01:26;2.75;;;1.60;;
18772;SDS011;9515;50.810;4.418;2022-07-30T09:03:52;4.15;;;1.73;;
18772;SDS011;9515;50.810;4.418;2022-07-30T09:06:18;4.22;;;1.80;;
18772;SDS011;9515;50.810;4.418;2022-07-30T09:08:44;2.95;;;1.40;;
18772;SDS011;9515;50.810;4.418;2022-07-30T09:11:09;4.80;;;1.80;;
18772;SDS011;9515;50.810;4.418;2022-07-30T09:13:37;3.13;;;1.60;;
18772;SDS011;9515;50.810;4.418;2022-07-30T09:16:06;4.57;;;1.70;;
18772;SDS011;9515;50.810;4.418;2022-07-30T09:23:41;5.32;;;1.90;;
18772;SDS011;9515;50.810;4.418;2022-07-30T09:26:21;4.93;;;1.95;;
18772;SDS011;9515;50.810;4.418;2022-07-30T09:28:47;21.17;;;3.65;;
18772;SDS011;9515;50.810;4.418;2022-07-30T09:31:12;3.45;;;2.10;;
18772;SDS011;9515;50.810;4.418;2022-07-30T09:33:39;4.88;;;1.83;;
18772;SDS011;9515;50.810;4.418;2022-07-30T09:36:10;8.35;;;2.30;;
18772;SDS011;9515;50.810;4.418;2022-07-30T09:38:42;4.97;;;1.98;;
18772;SDS011;9515;50.810;4.418;2022-07-30T09:41:31;23.08;;;2.97;;
18772;SDS011;9515;50.810;4.418;2022-07-30T09:44:00;3.65;;;1.88;;
18772;SDS011;9515;50.810;4.418;2022-07-30T09:49:18;4.25;;;1.73;;
18772;SDS011;9515;50.810;4.418;2022-07-30T09:51:45;8.10;;;2.30;;
18772;SDS011;9515;50.810;4.418;2022-07-30T09:54:11;23.58;;;2.58;;
18772;SDS011;9515;50.810;4.418;2022-07-30T09:56:37;6.00;;;1.60;;
18772;SDS011;9515;50.810;4.418;2022-07-30T09:59:04;7.00;;;1.85;;
18772;SDS011;9515;50.810;4.418;2022-07-30T10:01:49;6.05;;;1.80;;
18772;SDS011;9515;50.810;4.418;2022-07-30T10:04:49;4.85;;;2.30;;
18772;SDS011;9515;50.810;4.418;2022-07-30T10:07:18;4.00;;;1.90;;
18772;SDS011;9515;50.810;4.418;2022-07-30T10:09:44;6.00;;;2.10;;
18772;SDS011;9515;50.810;4.418;2022-07-30T10:12:13;3.17;;;1.92;;
18772;SDS011;9515;50.810;4.418;2022-07-30T10:14:41;4.15;;;2.30;;
18772;SDS011;9515;50.810;4.418;2022-07-30T10:17:09;4.45;;;2.08;;
18772;SDS011;9515;50.810;4.418;2022-07-30T10:19:36;3.88;;;2.08;;
18772;SDS011;9515;50.810;4.418;2022-07-30T10:22:03;4.68;;;1.90;;
18772;SDS011;9515;50.810;4.418;2022-07-30T10:24:29;5.25;;;2.20;;
18772;SDS011;9515;50.810;4.418;2022-07-30T10:26:55;3.65;;;2.00;;
18772;SDS011;9515;50.810;4.418;2022-07-30T10:29:21;4.03;;;1.90;;
18772;SDS011;9515;50.810;4.418;2022-07-30T10:31:48;4.85;;;1.85;;
18772;SDS011;9515;50.810;4.418;2022-07-30T10:34:15;5.00;;;2.00;;
18772;SDS011;9515;50.810;4.418;2022-07-30T10:36:43;3.78;;;2.25;;
18772;SDS011;9515;50.810;4.418;2022-07-30T10:39:13;7.18;;;2.00;;
18772;SDS011;9515;50.810;4.418;2022-07-30T10:44:20;4.70;;;1.98;;
18772;SDS011;9515;50.810;4.418;2022-07-30T10:47:04;3.60;;;2.03;;
18772;SDS011;9515;50.810;4.418;2022-07-30T10:49:33;3.85;;;2.22;;
18772;SDS011;9515;50.810;4.418;2022-07-30T10:51:59;5.25;;;2.10;;
18772;SDS011;9515;50.810;4.418;2022-07-30T10:54:38;5.13;;;2.45;;
18772;SDS011;9515;50.810;4.418;2022-07-30T11:00:21;6.35;;;2.22;;
18772;SDS011;9515;50.810;4.418;2022-07-30T11:02:25;5.43;;;2.50;;
18772;SDS011;9515;50.810;4.418;2022-07-30T11:05:37;4.50;;;2.25;;
18772;SDS011;9515;50.810;4.418;2022-07-30T11:07:44;5.38;;;2.00;;
18772;SDS011;9515;50.810;4.418;2022-07-30T11:13:03;4.70;;;2.08;;
18772;SDS011;9515;50.810;4.418;2022-07-30T11:15:50;6.60;;;2.03;;
18772;SDS011;9515;50.810;4.418;2022-07-30T11:18:21;2.72;;;2.17;;
18772;SDS011;9515;50.810;4.418;2022-07-30T11:23:43;3.40;;;2.40;;
18772;SDS011;9515;50.810;4.418;2022-07-30T11:26:10;4.20;;;2.10;;
18772;SDS011;9515;50.810;4.418;2022-07-30T11:28:55;4.22;;;2.10;;
18772;SDS011;9515;50.810;4.418;2022-07-30T11:31:39;4.07;;;2.40;;
18772;SDS011;9515;50.810;4.418;2022-07-30T11:44:49;8.25;;;2.33;;
18772;SDS011;9515;50.810;4.418;2022-07-30T11:47:15;4.50;;;2.30;;
18772;SDS011;9515;50.810;4.418;2022-07-30T11:49:40;3.30;;;2.40;;
18772;SDS011;9515;50.810;4.418;2022-07-30T11:52:06;3.40;;;2.30;;
18772;SDS011;9515;50.810;4.418;2022-07-30T11:54:32;4.10;;;2.20;;
18772;SDS011;9515;50.810;4.418;2022-07-30T11:57:14;4.28;;;2.30;;
18772;SDS011;9515;50.810;4.418;2022-07-30T11:59:52;1.92;;;1.73;;
18772;SDS011;9515;50.810;4.418;2022-07-30T12:02:19;3.63;;;2.20;;
18772;SDS011;9515;50.810;4.418;2022-07-30T12:04:51;4.78;;;2.28;;
18772;SDS011;9515;50.810;4.418;2022-07-30T12:07:23;5.45;;;2.30;;
18772;SDS011;9515;50.810;4.418;2022-07-30T12:09:49;6.03;;;2.35;;
18772;SDS011;9515;50.810;4.418;2022-07-30T12:12:21;4.45;;;1.90;;
18772;SDS011;9515;50.810;4.418;2022-07-30T12:14:48;5.53;;;2.00;;
18772;SDS011;9515;50.810;4.418;2022-07-30T12:17:14;5.18;;;2.30;;
18772;SDS011;9515;50.810;4.418;2022-07-30T12:19:43;4.03;;;1.90;;
18772;SDS011;9515;50.810;4.418;2022-07-30T12:22:10;2.55;;;1.75;;
18772;SDS011;9515;50.810;4.418;2022-07-30T12:24:35;2.80;;;1.70;;
18772;SDS011;9515;50.810;4.418;2022-07-30T12:27:05;4.97;;;2.20;;
18772;SDS011;9515;50.810;4.418;2022-07-30T12:29:32;3.50;;;1.80;;
18772;SDS011;9515;50.810;4.418;2022-07-30T12:32:00;6.13;;;2.80;;
18772;SDS011;9515;50.810;4.418;2022-07-30T12:34:26;5.10;;;2.45;;
18772;SDS011;9515;50.810;4.418;2022-07-30T12:36:52;4.15;;;1.85;;
18772;SDS011;9515;50.810;4.418;2022-07-30T12:39:24;4.60;;;2.05;;
18772;SDS011;9515;50.810;4.418;2022-07-30T12:41:51;3.58;;;1.50;;
18772;SDS011;9515;50.810;4.418;2022-07-30T12:46:58;6.50;;;1.90;;
18772;SDS011;9515;50.810;4.418;2022-07-30T12:49:28;4.03;;;1.80;;
18772;SDS011;9515;50.810;4.418;2022-07-30T12:51:54;4.10;;;1.88;;
18772;SDS011;9515;50.810;4.418;2022-07-30T12:54:21;3.15;;;2.00;;
18772;SDS011;9515;50.810;4.418;2022-07-30T12:59:25;3.50;;;1.65;;
18772;SDS011;9515;50.810;4.418;2022-07-30T13:01:52;4.20;;;1.70;;
18772;SDS011;9515;50.810;4.418;2022-07-30T13:04:18;6.25;;;1.80;;
18772;SDS011;9515;50.810;4.418;2022-07-30T13:07:01;5.72;;;2.00;;
18772;SDS011;9515;50.810;4.418;2022-07-30T13:09:37;4.88;;;1.65;;
18772;SDS011;9515;50.810;4.418;2022-07-30T13:12:04;5.93;;;1.92;;
18772;SDS011;9515;50.810;4.418;2022-07-30T13:14:30;3.10;;;1.83;;
18772;SDS011;9515;50.810;4.418;2022-07-30T13:16:57;3.53;;;1.70;;
18772;SDS011;9515;50.810;4.418;2022-07-30T13:19:23;6.15;;;1.80;;
18772;SDS011;9515;50.810;4.418;2022-07-30T13:21:50;3.30;;;1.75;;
18772;SDS011;9515;50.810;4.418;2022-07-30T13:24:16;5.95;;;1.70;;
18772;SDS011;9515;50.810;4.418;2022-07-30T13:26:42;5.00;;;2.10;;
18772;SDS011;9515;50.810;4.418;2022-07-30T13:29:08;3.08;;;1.40;;
18772;SDS011;9515;50.810;4.418;2022-07-30T13:31:34;5.88;;;1.58;;
18772;SDS011;9515;50.810;4.418;2022-07-30T13:33:59;3.72;;;1.95;;
18772;SDS011;9515;50.810;4.418;2022-07-30T13:36:25;3.60;;;1.70;;
18772;SDS011;9515;50.810;4.418;2022-07-30T13:38:51;5.45;;;2.00;;
18772;SDS011;9515;50.810;4.418;2022-07-30T13:41:17;5.30;;;1.80;;
18772;SDS011;9515;50.810;4.418;2022-07-30T13:43:43;3.95;;;1.58;;
18772;SDS011;9515;50.810;4.418;2022-07-30T13:46:09;3.47;;;1.67;;
18772;SDS011;9515;50.810;4.418;2022-07-30T13:48:35;5.20;;;2.17;;
18772;SDS011;9515;50.810;4.418;2022-07-30T13:51:01;3.22;;;1.77;;
18772;SDS011;9515;50.810;4.418;2022-07-30T13:53:27;2.55;;;1.70;;
18772;SDS011;9515;50.810;4.418;2022-07-30T13:55:53;3.60;;;1.83;;
18772;SDS011;9515;50.810;4.418;2022-07-30T13:58:19;5.80;;;2.33;;
18772;SDS011;9515;50.810;4.418;2022-07-30T14:00:45;3.65;;;2.00;;
18772;SDS011;9515;50.810;4.418;2022-07-30T14:03:12;3.50;;;1.60;;
18772;SDS011;9515;50.810;4.418;2022-07-30T14:05:39;4.28;;;1.70;;
18772;SDS011;9515;50.810;4.418;2022-07-30T14:08:05;5.95;;;1.58;;
18772;SDS011;9515;50.810;4.418;2022-07-30T14:10:32;6.30;;;1.92;;
18772;SDS011;9515;50.810;4.418;2022-07-30T14:13:01;5.57;;;2.10;;
18772;SDS011;9515;50.810;4.418;2022-07-30T14:15:29;2.13;;;1.80;;
18772;SDS011;9515;50.810;4.418;2022-07-30T14:17:55;2.58;;;2.22;;
18772;SDS011;9515;50.810;4.418;2022-07-30T14:20:21;2.65;;;1.83;;
18772;SDS011;9515;50.810;4.418;2022-07-30T14:22:48;3.35;;;1.90;;
18772;SDS011;9515;50.810;4.418;2022-07-30T14:25:13;3.05;;;1.52;;
18772;SDS011;9515;50.810;4.418;2022-07-30T14:27:39;8.00;;;2.00;;
18772;SDS011;9515;50.810;4.418;2022-07-30T14:30:05;5.15;;;1.92;;
18772;SDS011;9515;50.810;4.418;2022-07-30T14:32:33;4.65;;;1.98;;
18772;SDS011;9515;50.810;4.418;2022-07-30T14:35:03;4.45;;;2.00;;
18772;SDS011;9515;50.810;4.418;2022-07-30T14:37:29;3.50;;;1.85;;
18772;SDS011;9515;50.810;4.418;2022-07-30T14:39:55;3.53;;;1.98;;
18772;SDS011;9515;50.810;4.418;2022-07-30T14:42:21;6.03;;;2.03;;
18772;SDS011;9515;50.810;4.418;2022-07-30T14:44:49;5.68;;;1.80;;
18772;SDS011;9515;50.810;4.418;2022-07-30T14:47:15;4.45;;;1.70;;
18772;SDS011;9515;50.810;4.418;2022-07-30T14:49:41;3.13;;;1.40;;
18772;SDS011;9515;50.810;4.418;2022-07-30T14:52:07;6.00;;;1.60;;
18772;SDS011;9515;50.810;4.418;2022-07-30T14:54:32;6.00;;;1.50;;
18772;SDS011;9515;50.810;4.418;2022-07-30T14:56:58;4.53;;;1.80;;
18772;SDS011;9515;50.810;4.418;2022-07-30T14:59:24;4.07;;;1.80;;
18772;SDS011;9515;50.810;4.418;2022-07-30T15:01:51;6.28;;;1.50;;
18772;SDS011;9515;50.810;4.418;2022-07-30T15:04:18;3.83;;;1.73;;
18772;SDS011;9515;50.810;4.418;2022-07-30T15:06:44;12.60;;;9.65;;
18772;SDS011;9515;50.810;4.418;2022-07-30T15:09:10;5.30;;;1.70;;
18772;SDS011;9515;50.810;4.418;2022-07-30T15:11:36;2.70;;;1.65;;
18772;SDS011;9515;50.810;4.418;2022-07-30T15:14:01;4.78;;;1.70;;
18772;SDS011;9515;50.810;4.418;2022-07-30T15:16:27;3.25;;;1.67;;
18772;SDS011;9515;50.810;4.418;2022-07-30T15:18:53;5.03;;;1.55;;
18772;SDS011;9515;50.810;4.418;2022-07-30T15:21:18;2.83;;;1.77;;
18772;SDS011;9515;50.810;4.418;2022-07-30T15:23:44;3.83;;;1.75;;
18772;SDS011;9515;50.810;4.418;2022-07-30T15:26:10;5.60;;;1.70;;
18772;SDS011;9515;50.810;4.418;2022-07-30T15:28:35;2.80;;;1.60;;
18772;SDS011;9515;50.810;4.418;2022-07-30T15:31:01;4.00;;;1.70;;
18772;SDS011;9515;50.810;4.418;2022-07-30T15:33:27;3.08;;;1.52;;
18772;SDS011;9515;50.810;4.418;2022-07-30T15:35:53;4.53;;;1.65;;
18772;SDS011;9515;50.810;4.418;2022-07-30T15:38:18;4.70;;;2.53;;
18772;SDS011;9515;50.810;4.418;2022-07-30T15:40:44;2.60;;;1.80;;
18772;SDS011;9515;50.810;4.418;2022-07-30T15:43:10;4.25;;;1.50;;
18772;SDS011;9515;50.810;4.418;2022-07-30T15:45:35;4.03;;;1.70;;